sensor_id;sensor_type;location;lat;lon;timestamp;P1;durP1;ratioP1;P2;durP2;ratioP2
66581;SDS011;53438;48.898;2.308;2023-02-28T00:02:08;8.30;;;4.80;;
66581;SDS011;53438;48.898;2.308;2023-02-28T00:04:34;7.78;;;5.57;;
66581;SDS011;53438;48.898;2.308;2023-02-28T00:07:00;10.70;;;5.13;;
66581;SDS011;53438;48.898;2.308;2023-02-28T00:09:25;8.93;;;5.07;;
66581;SDS011;53438;48.898;2.308;2023-02-28T00:11:50;7.93;;;5.60;;
66581;SDS011;53438;48.898;2.308;2023-02-28T00:14:15;9.80;;;5.20;;
66581;SDS011;53438;48.898;2.308;2023-02-28T00:16:41;10.03;;;5.20;;
66581;SDS011;53438;48.898;2.308;2023-02-28T00:19:06;10.37;;;5.37;;
66581;SDS011;53438;48.898;2.308;2023-02-28T00:21:32;8.43;;;5.20;;
66581;SDS011;53438;48.898;2.308;2023-02-28T00:23:58;7.70;;;5.63;;
66581;SDS011;53438;48.898;2.308;2023-02-28T00:26:24;8.43;;;4.80;;
66581;SDS011;53438;48.898;2.308;2023-02-28T00:28:51;7.90;;;5.10;;
66581;SDS011;53438;48.898;2.308;2023-02-28T00:31:17;8.40;;;5.40;;
66581;SDS011;53438;48.898;2.308;2023-02-28T00:33:42;8.40;;;5.23;;
66581;SDS011;53438;48.898;2.308;2023-02-28T00:36:09;11.40;;;5.60;;
66581;SDS011;53438;48.898;2.308;2023-02-28T00:38:36;7.43;;;3.58;;
66581;SDS011;53438;48.898;2.308;2023-02-28T00:41:02;7.95;;;3.97;;
66581;SDS011;53438;48.898;2.308;2023-02-28T00:43:34;13.05;;;5.72;;
66581;SDS011;53438;48.898;2.308;2023-02-28T00:46:01;9.02;;;5.00;;
66581;SDS011;53438;48.898;2.308;2023-02-28T00:48:27;7.57;;;5.27;;
66581;SDS011;53438;48.898;2.308;2023-02-28T00:50:54;6.95;;;4.82;;
66581;SDS011;53438;48.898;2.308;2023-02-28T00:53:19;10.13;;;4.77;;
66581;SDS011;53438;48.898;2.308;2023-02-28T00:55:46;9.45;;;5.07;;
66581;SDS011;53438;48.898;2.308;2023-02-28T00:58:13;6.65;;;4.95;;
66581;SDS011;53438;48.898;2.308;2023-02-28T04:02:05;7.07;;;4.18;;
66581;SDS011;53438;48.898;2.308;2023-02-28T04:04:30;7.93;;;4.30;;
66581;SDS011;53438;48.898;2.308;2023-02-28T04:07:03;7.78;;;4.40;;
66581;SDS011;53438;48.898;2.308;2023-02-28T04:09:31;7.15;;;4.68;;
66581;SDS011;53438;48.898;2.308;2023-02-28T04:11:57;6.27;;;4.00;;
66581;SDS011;53438;48.898;2.308;2023-02-28T04:14:22;8.90;;;4.57;;
66581;SDS011;53438;48.898;2.308;2023-02-28T04:16:48;7.60;;;4.70;;
66581;SDS011;53438;48.898;2.308;2023-02-28T04:19:15;8.38;;;4.32;;
66581;SDS011;53438;48.898;2.308;2023-02-28T04:21:42;9.37;;;5.40;;
66581;SDS011;53438;48.898;2.308;2023-02-28T04:24:10;9.80;;;4.40;;
66581;SDS011;53438;48.898;2.308;2023-02-28T04:26:42;9.27;;;4.95;;
66581;SDS011;53438;48.898;2.308;2023-02-28T04:29:09;6.03;;;4.18;;
66581;SDS011;53438;48.898;2.308;2023-02-28T04:31:36;5.75;;;3.97;;
66581;SDS011;53438;48.898;2.308;2023-02-28T04:34:01;8.27;;;4.03;;
66581;SDS011;53438;48.898;2.308;2023-02-28T04:36:27;6.20;;;3.83;;
66581;SDS011;53438;48.898;2.308;2023-02-28T04:38:53;6.97;;;3.53;;
66581;SDS011;53438;48.898;2.308;2023-02-28T04:41:19;8.82;;;4.10;;
66581;SDS011;53438;48.898;2.308;2023-02-28T04:43:46;7.50;;;4.60;;
66581;SDS011;53438;48.898;2.308;2023-02-28T04:46:12;6.47;;;4.13;;
66581;SDS011;53438;48.898;2.308;2023-02-28T04:48:38;6.37;;;3.87;;
66581;SDS011;53438;48.898;2.308;2023-02-28T04:51:05;6.07;;;4.10;;
66581;SDS011;53438;48.898;2.308;2023-02-28T04:53:35;5.55;;;4.13;;
66581;SDS011;53438;48.898;2.308;2023-02-28T04:56:01;7.47;;;4.07;;
66581;SDS011;53438;48.898;2.308;2023-02-28T04:58:27;11.83;;;4.67;;
66581;SDS011;53438;48.898;2.308;2023-02-28T05:00:57;7.18;;;4.40;;
66581;SDS011;53438;48.898;2.308;2023-02-28T05:03:27;6.47;;;4.20;;
66581;SDS011;53438;48.898;2.308;2023-02-28T05:05:53;7.47;;;4.63;;
66581;SDS011;53438;48.898;2.308;2023-02-28T05:08:18;9.33;;;4.57;;
66581;SDS011;53438;48.898;2.308;2023-02-28T05:10:43;9.23;;;4.50;;
66581;SDS011;53438;48.898;2.308;2023-02-28T05:13:11;7.03;;;4.77;;
66581;SDS011;53438;48.898;2.308;2023-02-28T05:15:37;9.25;;;4.70;;
66581;SDS011;53438;48.898;2.308;2023-02-28T05:18:02;9.57;;;4.90;;
66581;SDS011;53438;48.898;2.308;2023-02-28T05:20:28;10.00;;;4.88;;
66581;SDS011;53438;48.898;2.308;2023-02-28T05:22:53;9.33;;;4.40;;
66581;SDS011;53438;48.898;2.308;2023-02-28T05:25:20;6.80;;;4.73;;
66581;SDS011;53438;48.898;2.308;2023-02-28T05:27:47;8.32;;;4.63;;
66581;SDS011;53438;48.898;2.308;2023-02-28T05:30:12;9.60;;;5.07;;
66581;SDS011;53438;48.898;2.308;2023-02-28T05:32:38;11.53;;;5.57;;
66581;SDS011;53438;48.898;2.308;2023-02-28T05:35:04;8.98;;;4.68;;
66581;SDS011;53438;48.898;2.308;2023-02-28T05:37:29;6.73;;;5.13;;
66581;SDS011;53438;48.898;2.308;2023-02-28T05:39:55;8.30;;;5.45;;
66581;SDS011;53438;48.898;2.308;2023-02-28T05:42:20;10.27;;;6.00;;
66581;SDS011;53438;48.898;2.308;2023-02-28T05:44:46;9.57;;;6.03;;
66581;SDS011;53438;48.898;2.308;2023-02-28T05:47:11;11.53;;;6.10;;
66581;SDS011;53438;48.898;2.308;2023-02-28T05:49:40;9.85;;;5.82;;
66581;SDS011;53438;48.898;2.308;2023-02-28T05:52:05;11.43;;;6.27;;
66581;SDS011;53438;48.898;2.308;2023-02-28T05:54:31;10.40;;;5.93;;
66581;SDS011;53438;48.898;2.308;2023-02-28T05:56:56;13.23;;;6.07;;
66581;SDS011;53438;48.898;2.308;2023-02-28T05:59:21;14.32;;;7.85;;
66581;SDS011;53438;48.898;2.308;2023-02-28T06:01:47;13.43;;;6.47;;
66581;SDS011;53438;48.898;2.308;2023-02-28T06:04:18;17.23;;;7.00;;
66581;SDS011;53438;48.898;2.308;2023-02-28T06:06:45;14.73;;;7.13;;
66581;SDS011;53438;48.898;2.308;2023-02-28T06:09:14;13.27;;;8.18;;
66581;SDS011;53438;48.898;2.308;2023-02-28T06:11:40;11.07;;;7.80;;
66581;SDS011;53438;48.898;2.308;2023-02-28T06:14:05;13.13;;;7.97;;
66581;SDS011;53438;48.898;2.308;2023-02-28T06:16:33;15.90;;;7.95;;
66581;SDS011;53438;48.898;2.308;2023-02-28T06:19:00;12.45;;;7.97;;
66581;SDS011;53438;48.898;2.308;2023-02-28T06:21:28;13.73;;;8.17;;
66581;SDS011;53438;48.898;2.308;2023-02-28T06:23:55;13.52;;;5.55;;
66581;SDS011;53438;48.898;2.308;2023-02-28T06:26:21;13.88;;;7.28;;
66581;SDS011;53438;48.898;2.308;2023-02-28T06:28:47;15.33;;;8.50;;
66581;SDS011;53438;48.898;2.308;2023-02-28T06:31:14;11.77;;;8.27;;
66581;SDS011;53438;48.898;2.308;2023-02-28T06:33:41;12.18;;;7.57;;
66581;SDS011;53438;48.898;2.308;2023-02-28T06:36:08;16.00;;;8.05;;
66581;SDS011;53438;48.898;2.308;2023-02-28T06:38:35;14.17;;;8.40;;
66581;SDS011;53438;48.898;2.308;2023-02-28T06:41:01;14.10;;;8.00;;
66581;SDS011;53438;48.898;2.308;2023-02-28T06:43:31;20.30;;;8.77;;
66581;SDS011;53438;48.898;2.308;2023-02-28T06:45:59;20.55;;;9.00;;
66581;SDS011;53438;48.898;2.308;2023-02-28T06:48:26;17.80;;;9.52;;
66581;SDS011;53438;48.898;2.308;2023-02-28T06:50:52;17.55;;;8.73;;
66581;SDS011;53438;48.898;2.308;2023-02-28T06:53:25;15.43;;;8.80;;
66581;SDS011;53438;48.898;2.308;2023-02-28T06:55:51;17.10;;;9.20;;
66581;SDS011;53438;48.898;2.308;2023-02-28T06:58:16;14.85;;;9.65;;
66581;SDS011;53438;48.898;2.308;2023-02-28T07:00:44;15.27;;;8.50;;
66581;SDS011;53438;48.898;2.308;2023-02-28T07:03:11;11.52;;;7.63;;
66581;SDS011;53438;48.898;2.308;2023-02-28T07:05:37;16.33;;;8.95;;
66581;SDS011;53438;48.898;2.308;2023-02-28T07:08:04;16.08;;;9.13;;
66581;SDS011;53438;48.898;2.308;2023-02-28T07:10:31;17.13;;;9.03;;
66581;SDS011;53438;48.898;2.308;2023-02-28T07:12:57;12.43;;;7.75;;
66581;SDS011;53438;48.898;2.308;2023-02-28T07:15:23;15.70;;;9.63;;
66581;SDS011;53438;48.898;2.308;2023-02-28T07:17:48;15.07;;;9.67;;
66581;SDS011;53438;48.898;2.308;2023-02-28T07:20:14;15.80;;;9.07;;
66581;SDS011;53438;48.898;2.308;2023-02-28T07:22:40;17.13;;;9.27;;
66581;SDS011;53438;48.898;2.308;2023-02-28T07:25:06;17.70;;;9.85;;
66581;SDS011;53438;48.898;2.308;2023-02-28T07:27:32;17.93;;;9.63;;
66581;SDS011;53438;48.898;2.308;2023-02-28T07:29:59;18.67;;;9.32;;
66581;SDS011;53438;48.898;2.308;2023-02-28T07:32:26;21.23;;;10.02;;
66581;SDS011;53438;48.898;2.308;2023-02-28T07:34:52;16.27;;;9.70;;
66581;SDS011;53438;48.898;2.308;2023-02-28T07:37:18;15.40;;;9.83;;
66581;SDS011;53438;48.898;2.308;2023-02-28T07:39:43;16.40;;;9.35;;
66581;SDS011;53438;48.898;2.308;2023-02-28T07:42:09;16.83;;;9.60;;
66581;SDS011;53438;48.898;2.308;2023-02-28T07:44:36;16.70;;;8.87;;
66581;SDS011;53438;48.898;2.308;2023-02-28T07:47:05;23.85;;;10.88;;
66581;SDS011;53438;48.898;2.308;2023-02-28T07:49:35;19.17;;;10.27;;
66581;SDS011;53438;48.898;2.308;2023-02-28T07:52:02;20.33;;;10.55;;
66581;SDS011;53438;48.898;2.308;2023-02-28T07:54:31;16.05;;;9.70;;
66581;SDS011;53438;48.898;2.308;2023-02-28T07:56:57;16.50;;;8.97;;
66581;SDS011;53438;48.898;2.308;2023-02-28T07:59:22;20.87;;;9.77;;
66581;SDS011;53438;48.898;2.308;2023-02-28T08:01:48;20.17;;;9.75;;
66581;SDS011;53438;48.898;2.308;2023-02-28T08:04:15;20.73;;;10.55;;
66581;SDS011;53438;48.898;2.308;2023-02-28T08:06:44;18.88;;;10.57;;
66581;SDS011;53438;48.898;2.308;2023-02-28T08:09:09;16.83;;;9.80;;
66581;SDS011;53438;48.898;2.308;2023-02-28T08:11:35;16.17;;;9.67;;
66581;SDS011;53438;48.898;2.308;2023-02-28T08:14:01;20.88;;;10.82;;
66581;SDS011;53438;48.898;2.308;2023-02-28T08:16:26;16.70;;;11.00;;
66581;SDS011;53438;48.898;2.308;2023-02-28T08:18:51;17.23;;;9.57;;
66581;SDS011;53438;48.898;2.308;2023-02-28T08:21:17;17.13;;;10.05;;
66581;SDS011;53438;48.898;2.308;2023-02-28T08:23:43;16.08;;;9.98;;
66581;SDS011;53438;48.898;2.308;2023-02-28T08:26:09;19.10;;;10.07;;
66581;SDS011;53438;48.898;2.308;2023-02-28T08:28:34;22.10;;;11.90;;
66581;SDS011;53438;48.898;2.308;2023-02-28T08:31:00;16.33;;;10.00;;
66581;SDS011;53438;48.898;2.308;2023-02-28T08:33:26;21.45;;;10.20;;
66581;SDS011;53438;48.898;2.308;2023-02-28T08:35:55;17.85;;;10.50;;
66581;SDS011;53438;48.898;2.308;2023-02-28T08:38:21;18.53;;;10.20;;
66581;SDS011;53438;48.898;2.308;2023-02-28T08:40:47;17.98;;;9.45;;
66581;SDS011;53438;48.898;2.308;2023-02-28T08:43:13;15.53;;;9.87;;
66581;SDS011;53438;48.898;2.308;2023-02-28T08:45:38;16.02;;;9.30;;
66581;SDS011;53438;48.898;2.308;2023-02-28T08:48:03;21.20;;;10.50;;
66581;SDS011;53438;48.898;2.308;2023-02-28T08:50:29;17.43;;;10.13;;
66581;SDS011;53438;48.898;2.308;2023-02-28T08:52:54;17.33;;;8.63;;
66581;SDS011;53438;48.898;2.308;2023-02-28T08:55:20;16.02;;;10.00;;
66581;SDS011;53438;48.898;2.308;2023-02-28T08:57:45;15.07;;;9.50;;
66581;SDS011;53438;48.898;2.308;2023-02-28T09:00:11;12.67;;;8.50;;
66581;SDS011;53438;48.898;2.308;2023-02-28T09:02:39;16.80;;;9.13;;
66581;SDS011;53438;48.898;2.308;2023-02-28T09:05:05;12.77;;;8.13;;
66581;SDS011;53438;48.898;2.308;2023-02-28T09:07:31;14.25;;;8.80;;
66581;SDS011;53438;48.898;2.308;2023-02-28T09:09:56;16.30;;;8.60;;
66581;SDS011;53438;48.898;2.308;2023-02-28T09:12:26;15.95;;;8.75;;
66581;SDS011;53438;48.898;2.308;2023-02-28T09:14:52;14.63;;;7.68;;
66581;SDS011;53438;48.898;2.308;2023-02-28T09:17:18;13.77;;;7.90;;
66581;SDS011;53438;48.898;2.308;2023-02-28T09:19:44;12.02;;;8.20;;
66581;SDS011;53438;48.898;2.308;2023-02-28T09:22:10;14.70;;;8.30;;
66581;SDS011;53438;48.898;2.308;2023-02-28T09:24:38;13.48;;;7.93;;
66581;SDS011;53438;48.898;2.308;2023-02-28T09:27:05;14.65;;;7.95;;
66581;SDS011;53438;48.898;2.308;2023-02-28T09:29:31;17.07;;;8.83;;
66581;SDS011;53438;48.898;2.308;2023-02-28T09:31:57;13.13;;;9.82;;
66581;SDS011;53438;48.898;2.308;2023-02-28T09:34:26;17.98;;;8.80;;
66581;SDS011;53438;48.898;2.308;2023-02-28T09:36:52;13.90;;;8.17;;
66581;SDS011;53438;48.898;2.308;2023-02-28T09:39:20;15.38;;;8.18;;
66581;SDS011;53438;48.898;2.308;2023-02-28T09:41:48;17.92;;;8.30;;
66581;SDS011;53438;48.898;2.308;2023-02-28T09:44:30;15.13;;;8.40;;
66581;SDS011;53438;48.898;2.308;2023-02-28T09:47:11;12.00;;;8.00;;
66581;SDS011;53438;48.898;2.308;2023-02-28T09:49:44;13.00;;;8.47;;
66581;SDS011;53438;48.898;2.308;2023-02-28T09:52:14;15.32;;;7.28;;
66581;SDS011;53438;48.898;2.308;2023-02-28T09:54:42;15.10;;;7.82;;
66581;SDS011;53438;48.898;2.308;2023-02-28T10:02:41;13.75;;;8.18;;
66581;SDS011;53438;48.898;2.308;2023-02-28T10:05:27;14.10;;;7.38;;
66581;SDS011;53438;48.898;2.308;2023-02-28T10:10:44;13.20;;;7.60;;
66581;SDS011;53438;48.898;2.308;2023-02-28T10:13:19;11.15;;;6.85;;
66581;SDS011;53438;48.898;2.308;2023-02-28T10:15:54;14.90;;;7.78;;
66581;SDS011;53438;48.898;2.308;2023-02-28T10:18:25;10.32;;;6.90;;
66581;SDS011;53438;48.898;2.308;2023-02-28T10:20:55;12.57;;;10.20;;
66581;SDS011;53438;48.898;2.308;2023-02-28T10:23:34;9.87;;;5.67;;
66581;SDS011;53438;48.898;2.308;2023-02-28T10:26:08;9.77;;;6.05;;
66581;SDS011;53438;48.898;2.308;2023-02-28T10:28:38;13.38;;;6.78;;
66581;SDS011;53438;48.898;2.308;2023-02-28T10:31:04;9.13;;;5.97;;
66581;SDS011;53438;48.898;2.308;2023-02-28T10:33:30;13.10;;;6.40;;
66581;SDS011;53438;48.898;2.308;2023-02-28T10:35:59;12.18;;;6.03;;
66581;SDS011;53438;48.898;2.308;2023-02-28T10:38:37;8.10;;;5.63;;
66581;SDS011;53438;48.898;2.308;2023-02-28T10:41:10;11.77;;;5.70;;
66581;SDS011;53438;48.898;2.308;2023-02-28T10:43:41;10.23;;;5.23;;
66581;SDS011;53438;48.898;2.308;2023-02-28T10:48:47;10.07;;;6.15;;
66581;SDS011;53438;48.898;2.308;2023-02-28T10:51:22;9.80;;;4.75;;
66581;SDS011;53438;48.898;2.308;2023-02-28T10:53:51;6.63;;;4.20;;
66581;SDS011;53438;48.898;2.308;2023-02-28T10:56:21;6.97;;;4.63;;
66581;SDS011;53438;48.898;2.308;2023-02-28T11:01:25;9.18;;;5.78;;
66581;SDS011;53438;48.898;2.308;2023-02-28T11:04:49;9.07;;;5.20;;
66581;SDS011;53438;48.898;2.308;2023-02-28T11:07:00;16.10;;;8.47;;
66581;SDS011;53438;48.898;2.308;2023-02-28T11:12:04;9.68;;;5.00;;
66581;SDS011;53438;48.898;2.308;2023-02-28T11:14:33;7.65;;;3.90;;
66581;SDS011;53438;48.898;2.308;2023-02-28T11:17:11;6.78;;;4.32;;
66581;SDS011;53438;48.898;2.308;2023-02-28T11:19:44;5.23;;;3.20;;
66581;SDS011;53438;48.898;2.308;2023-02-28T11:22:15;5.57;;;4.00;;
66581;SDS011;53438;48.898;2.308;2023-02-28T11:24:47;6.05;;;4.35;;
66581;SDS011;53438;48.898;2.308;2023-02-28T11:27:40;7.38;;;4.18;;
66581;SDS011;53438;48.898;2.308;2023-02-28T11:30:39;6.75;;;4.38;;
66581;SDS011;53438;48.898;2.308;2023-02-28T11:36:14;6.60;;;4.00;;
66581;SDS011;53438;48.898;2.308;2023-02-28T11:38:41;6.93;;;3.72;;
66581;SDS011;53438;48.898;2.308;2023-02-28T11:44:16;6.15;;;3.90;;
66581;SDS011;53438;48.898;2.308;2023-02-28T11:52:35;6.00;;;4.18;;
66581;SDS011;53438;48.898;2.308;2023-02-28T11:55:14;5.70;;;3.65;;
66581;SDS011;53438;48.898;2.308;2023-02-28T12:06:16;8.63;;;4.20;;
66581;SDS011;53438;48.898;2.308;2023-02-28T12:14:42;5.47;;;3.33;;
66581;SDS011;53438;48.898;2.308;2023-02-28T12:26:11;5.60;;;3.58;;
66581;SDS011;53438;48.898;2.308;2023-02-28T12:28:57;6.27;;;3.60;;
66581;SDS011;53438;48.898;2.308;2023-02-28T12:31:29;5.35;;;3.28;;
66581;SDS011;53438;48.898;2.308;2023-02-28T12:34:01;7.60;;;4.40;;
66581;SDS011;53438;48.898;2.308;2023-02-28T12:36:29;10.25;;;3.92;;
66581;SDS011;53438;48.898;2.308;2023-02-28T12:38:56;8.70;;;4.43;;
66581;SDS011;53438;48.898;2.308;2023-02-28T12:44:01;7.25;;;4.65;;
66581;SDS011;53438;48.898;2.308;2023-02-28T12:46:48;5.20;;;3.20;;
66581;SDS011;53438;48.898;2.308;2023-02-28T12:49:16;6.88;;;3.65;;
66581;SDS011;53438;48.898;2.308;2023-02-28T12:51:46;9.93;;;4.40;;
66581;SDS011;53438;48.898;2.308;2023-02-28T13:10:14;8.43;;;3.47;;
66581;SDS011;53438;48.898;2.308;2023-02-28T13:12:48;9.00;;;3.75;;
66581;SDS011;53438;48.898;2.308;2023-02-28T13:17:48;10.02;;;4.60;;
66581;SDS011;53438;48.898;2.308;2023-02-28T13:20:19;5.82;;;4.18;;
66581;SDS011;53438;48.898;2.308;2023-02-28T13:22:49;6.50;;;3.85;;
66581;SDS011;53438;48.898;2.308;2023-02-28T13:27:59;5.77;;;2.57;;
66581;SDS011;53438;48.898;2.308;2023-02-28T13:33:27;5.53;;;3.30;;
66581;SDS011;53438;48.898;2.308;2023-02-28T13:46:34;5.80;;;4.28;;
66581;SDS011;53438;48.898;2.308;2023-02-28T13:51:51;8.25;;;3.33;;
66581;SDS011;53438;48.898;2.308;2023-02-28T14:11:25;6.18;;;3.63;;
66581;SDS011;53438;48.898;2.308;2023-02-28T14:13:56;6.15;;;4.07;;
66581;SDS011;53438;48.898;2.308;2023-02-28T14:16:25;4.93;;;3.43;;
66581;SDS011;53438;48.898;2.308;2023-02-28T14:18:58;7.78;;;3.50;;
66581;SDS011;53438;48.898;2.308;2023-02-28T14:21:32;4.72;;;3.15;;
66581;SDS011;53438;48.898;2.308;2023-02-28T14:26:56;7.95;;;2.88;;
66581;SDS011;53438;48.898;2.308;2023-02-28T14:29:36;5.63;;;3.40;;
66581;SDS011;53438;48.898;2.308;2023-02-28T14:35:16;3.85;;;3.10;;
66581;SDS011;53438;48.898;2.308;2023-02-28T14:37:47;5.65;;;2.88;;
66581;SDS011;53438;48.898;2.308;2023-02-28T14:40:17;3.73;;;3.07;;
66581;SDS011;53438;48.898;2.308;2023-02-28T14:42:54;3.97;;;2.88;;
66581;SDS011;53438;48.898;2.308;2023-02-28T14:45:22;4.57;;;2.38;;
66581;SDS011;53438;48.898;2.308;2023-02-28T14:47:49;5.00;;;3.03;;
66581;SDS011;53438;48.898;2.308;2023-02-28T14:50:20;5.25;;;3.50;;
66581;SDS011;53438;48.898;2.308;2023-02-28T14:52:47;5.80;;;3.30;;
66581;SDS011;53438;48.898;2.308;2023-02-28T14:55:17;6.85;;;4.22;;
66581;SDS011;53438;48.898;2.308;2023-02-28T14:58:01;6.15;;;3.17;;
66581;SDS011;53438;48.898;2.308;2023-02-28T15:00:35;3.78;;;3.10;;
66581;SDS011;53438;48.898;2.308;2023-02-28T15:03:17;3.58;;;2.95;;
66581;SDS011;53438;48.898;2.308;2023-02-28T15:05:51;6.23;;;2.80;;
66581;SDS011;53438;48.898;2.308;2023-02-28T15:08:27;3.38;;;2.78;;
66581;SDS011;53438;48.898;2.308;2023-02-28T15:10:57;4.10;;;2.83;;
66581;SDS011;53438;48.898;2.308;2023-02-28T15:13:29;6.15;;;3.13;;
66581;SDS011;53438;48.898;2.308;2023-02-28T15:16:22;5.47;;;3.17;;
66581;SDS011;53438;48.898;2.308;2023-02-28T15:21:31;4.68;;;3.15;;
66581;SDS011;53438;48.898;2.308;2023-02-28T15:24:00;7.05;;;3.45;;
66581;SDS011;53438;48.898;2.308;2023-02-28T15:26:41;4.40;;;2.42;;
66581;SDS011;53438;48.898;2.308;2023-02-28T15:29:14;6.53;;;3.60;;
66581;SDS011;53438;48.898;2.308;2023-02-28T15:31:45;5.10;;;2.80;;
66581;SDS011;53438;48.898;2.308;2023-02-28T15:34:18;4.28;;;2.65;;
66581;SDS011;53438;48.898;2.308;2023-02-28T15:36:45;4.43;;;3.63;;
66581;SDS011;53438;48.898;2.308;2023-02-28T15:39:20;5.03;;;2.78;;
66581;SDS011;53438;48.898;2.308;2023-02-28T15:41:48;5.07;;;3.60;;
66581;SDS011;53438;48.898;2.308;2023-02-28T15:44:16;7.95;;;3.80;;
66581;SDS011;53438;48.898;2.308;2023-02-28T15:47:13;5.10;;;3.70;;
66581;SDS011;53438;48.898;2.308;2023-02-28T15:49:50;5.07;;;3.17;;
66581;SDS011;53438;48.898;2.308;2023-02-28T15:52:19;4.97;;;2.58;;
66581;SDS011;53438;48.898;2.308;2023-02-28T15:54:58;5.63;;;2.57;;
66581;SDS011;53438;48.898;2.308;2023-02-28T15:57:31;4.30;;;3.03;;
66581;SDS011;53438;48.898;2.308;2023-02-28T15:59:57;5.83;;;2.63;;
66581;SDS011;53438;48.898;2.308;2023-02-28T16:07:32;5.75;;;3.70;;
66581;SDS011;53438;48.898;2.308;2023-02-28T16:09:59;4.32;;;3.03;;
66581;SDS011;53438;48.898;2.308;2023-02-28T16:12:27;4.87;;;3.10;;
66581;SDS011;53438;48.898;2.308;2023-02-28T16:14:55;3.40;;;2.70;;
66581;SDS011;53438;48.898;2.308;2023-02-28T16:17:24;6.28;;;2.95;;
66581;SDS011;53438;48.898;2.308;2023-02-28T16:19:51;4.57;;;3.00;;
66581;SDS011;53438;48.898;2.308;2023-02-28T16:22:17;3.38;;;2.38;;
66581;SDS011;53438;48.898;2.308;2023-02-28T16:24:42;4.27;;;3.30;;
66581;SDS011;53438;48.898;2.308;2023-02-28T16:27:15;5.25;;;3.53;;
66581;SDS011;53438;48.898;2.308;2023-02-28T16:29:46;4.40;;;3.33;;
66581;SDS011;53438;48.898;2.308;2023-02-28T16:32:13;5.22;;;3.38;;
66581;SDS011;53438;48.898;2.308;2023-02-28T16:34:40;6.05;;;3.25;;
66581;SDS011;53438;48.898;2.308;2023-02-28T16:37:11;6.17;;;2.93;;
66581;SDS011;53438;48.898;2.308;2023-02-28T16:39:41;5.35;;;3.20;;
66581;SDS011;53438;48.898;2.308;2023-02-28T16:42:09;6.60;;;3.45;;
66581;SDS011;53438;48.898;2.308;2023-02-28T16:44:56;5.70;;;3.10;;
66581;SDS011;53438;48.898;2.308;2023-02-28T16:47:22;5.90;;;2.75;;
66581;SDS011;53438;48.898;2.308;2023-02-28T16:49:48;5.77;;;3.67;;
66581;SDS011;53438;48.898;2.308;2023-02-28T16:52:14;5.47;;;3.17;;
66581;SDS011;53438;48.898;2.308;2023-02-28T16:54:40;4.30;;;3.03;;
66581;SDS011;53438;48.898;2.308;2023-02-28T16:57:06;4.97;;;3.50;;
66581;SDS011;53438;48.898;2.308;2023-02-28T16:59:41;4.47;;;2.95;;
66581;SDS011;53438;48.898;2.308;2023-02-28T17:02:09;5.00;;;3.28;;
66581;SDS011;53438;48.898;2.308;2023-02-28T17:04:38;5.50;;;4.10;;
66581;SDS011;53438;48.898;2.308;2023-02-28T17:07:03;5.23;;;3.23;;
66581;SDS011;53438;48.898;2.308;2023-02-28T17:09:29;4.28;;;3.58;;
66581;SDS011;53438;48.898;2.308;2023-02-28T17:11:54;7.40;;;3.63;;
66581;SDS011;53438;48.898;2.308;2023-02-28T17:14:21;5.93;;;3.40;;
66581;SDS011;53438;48.898;2.308;2023-02-28T17:16:48;5.13;;;3.25;;
66581;SDS011;53438;48.898;2.308;2023-02-28T17:19:14;6.45;;;3.25;;
66581;SDS011;53438;48.898;2.308;2023-02-28T17:21:42;9.05;;;3.15;;
66581;SDS011;53438;48.898;2.308;2023-02-28T17:24:08;5.53;;;3.50;;
66581;SDS011;53438;48.898;2.308;2023-02-28T17:26:34;4.78;;;3.42;;
66581;SDS011;53438;48.898;2.308;2023-02-28T17:28:59;4.57;;;3.47;;
66581;SDS011;53438;48.898;2.308;2023-02-28T17:31:26;5.73;;;3.57;;
66581;SDS011;53438;48.898;2.308;2023-02-28T17:33:52;4.15;;;2.88;;
66581;SDS011;53438;48.898;2.308;2023-02-28T17:36:23;4.38;;;3.30;;
66581;SDS011;53438;48.898;2.308;2023-02-28T17:38:51;7.70;;;3.38;;
66581;SDS011;53438;48.898;2.308;2023-02-28T17:41:20;5.13;;;3.30;;
66581;SDS011;53438;48.898;2.308;2023-02-28T17:43:47;5.55;;;3.10;;
66581;SDS011;53438;48.898;2.308;2023-02-28T17:46:22;5.50;;;3.40;;
66581;SDS011;53438;48.898;2.308;2023-02-28T17:48:49;4.43;;;2.97;;
66581;SDS011;53438;48.898;2.308;2023-02-28T17:51:18;5.53;;;3.30;;
66581;SDS011;53438;48.898;2.308;2023-02-28T17:53:45;5.57;;;3.10;;
66581;SDS011;53438;48.898;2.308;2023-02-28T17:56:15;5.50;;;3.47;;
66581;SDS011;53438;48.898;2.308;2023-02-28T17:58:43;5.57;;;3.20;;
66581;SDS011;53438;48.898;2.308;2023-02-28T18:01:08;5.50;;;3.57;;
66581;SDS011;53438;48.898;2.308;2023-02-28T18:03:34;5.88;;;3.30;;
66581;SDS011;53438;48.898;2.308;2023-02-28T18:05:59;6.40;;;4.13;;
66581;SDS011;53438;48.898;2.308;2023-02-28T18:08:26;5.97;;;3.42;;
66581;SDS011;53438;48.898;2.308;2023-02-28T18:10:52;7.47;;;3.67;;
66581;SDS011;53438;48.898;2.308;2023-02-28T18:13:17;6.82;;;4.18;;
66581;SDS011;53438;48.898;2.308;2023-02-28T18:15:43;5.15;;;3.22;;
66581;SDS011;53438;48.898;2.308;2023-02-28T18:18:08;6.37;;;3.70;;
66581;SDS011;53438;48.898;2.308;2023-02-28T18:20:34;5.00;;;3.47;;
66581;SDS011;53438;48.898;2.308;2023-02-28T18:23:00;7.45;;;3.30;;
66581;SDS011;53438;48.898;2.308;2023-02-28T18:25:25;6.50;;;3.87;;
66581;SDS011;53438;48.898;2.308;2023-02-28T18:27:51;7.03;;;3.92;;
66581;SDS011;53438;48.898;2.308;2023-02-28T18:30:25;6.30;;;3.73;;
66581;SDS011;53438;48.898;2.308;2023-02-28T18:32:55;6.25;;;3.90;;
66581;SDS011;53438;48.898;2.308;2023-02-28T18:35:21;6.20;;;3.88;;
66581;SDS011;53438;48.898;2.308;2023-02-28T18:38:06;5.78;;;3.92;;
66581;SDS011;53438;48.898;2.308;2023-02-28T18:40:56;4.68;;;3.35;;
66581;SDS011;53438;48.898;2.308;2023-02-28T18:43:24;7.00;;;4.20;;
66581;SDS011;53438;48.898;2.308;2023-02-28T18:45:52;6.13;;;3.97;;
66581;SDS011;53438;48.898;2.308;2023-02-28T18:48:17;9.65;;;3.53;;
66581;SDS011;53438;48.898;2.308;2023-02-28T18:50:50;5.93;;;3.50;;
66581;SDS011;53438;48.898;2.308;2023-02-28T18:53:16;8.80;;;5.00;;
66581;SDS011;53438;48.898;2.308;2023-02-28T18:55:42;4.95;;;3.25;;
66581;SDS011;53438;48.898;2.308;2023-02-28T18:58:08;5.38;;;3.65;;
66581;SDS011;53438;48.898;2.308;2023-02-28T19:00:34;6.80;;;3.83;;
66581;SDS011;53438;48.898;2.308;2023-02-28T19:03:01;4.67;;;3.73;;
66581;SDS011;53438;48.898;2.308;2023-02-28T19:05:26;7.00;;;4.43;;
66581;SDS011;53438;48.898;2.308;2023-02-28T19:07:56;6.68;;;4.20;;
66581;SDS011;53438;48.898;2.308;2023-02-28T19:10:22;6.87;;;3.97;;
66581;SDS011;53438;48.898;2.308;2023-02-28T19:12:47;6.20;;;3.93;;
66581;SDS011;53438;48.898;2.308;2023-02-28T19:15:13;6.03;;;4.00;;
66581;SDS011;53438;48.898;2.308;2023-02-28T19:17:38;6.47;;;4.05;;
66581;SDS011;53438;48.898;2.308;2023-02-28T19:20:04;7.43;;;4.37;;
66581;SDS011;53438;48.898;2.308;2023-02-28T19:22:31;7.53;;;4.40;;
66581;SDS011;53438;48.898;2.308;2023-02-28T19:24:57;7.60;;;4.43;;
66581;SDS011;53438;48.898;2.308;2023-02-28T19:27:23;5.95;;;3.95;;
66581;SDS011;53438;48.898;2.308;2023-02-28T19:29:50;9.68;;;3.95;;
66581;SDS011;53438;48.898;2.308;2023-02-28T19:32:17;7.03;;;4.43;;
66581;SDS011;53438;48.898;2.308;2023-02-28T19:34:44;9.65;;;4.15;;
66581;SDS011;53438;48.898;2.308;2023-02-28T19:37:11;6.40;;;4.03;;
66581;SDS011;53438;48.898;2.308;2023-02-28T19:39:37;5.72;;;3.95;;
66581;SDS011;53438;48.898;2.308;2023-02-28T19:42:06;6.80;;;4.05;;
66581;SDS011;53438;48.898;2.308;2023-02-28T19:44:32;7.30;;;3.72;;
66581;SDS011;53438;48.898;2.308;2023-02-28T19:46:58;8.80;;;4.53;;
66581;SDS011;53438;48.898;2.308;2023-02-28T19:49:23;8.63;;;4.67;;
66581;SDS011;53438;48.898;2.308;2023-02-28T19:51:48;8.33;;;4.67;;
66581;SDS011;53438;48.898;2.308;2023-02-28T19:54:14;7.43;;;4.60;;
66581;SDS011;53438;48.898;2.308;2023-02-28T19:56:39;9.37;;;4.63;;